1848 NOT_NAMED (1848061S12075)


IBTrACS version v04r00. Visit IBTrACS website for data access.
Please direct all questions to the IBTrACS Q and A forum

Storm track - Intensity - Wind Radii - Intensity Data - Source Data - All data

Summary Information

Storm ID 1848061S12075
Start Feb 29 18Z
End Mar 7 06Z
ATCF IDs
Track status Best track data.

Storm track plot

Map of storm track

Intensity plots

No Intensity information for this storm


Radial wind information

No radial wind information for this storm


Position and Intensity Table

BASIN ISO_TIME_________ NATURE LAT LON
degrees north degrees east
SI 1848-02-29 18:00:00 NR -11.50 75.00
SI 21:00:00 NR -11.48 75.05
SI 1848-03-01 00:00:00 NR -11.49 74.99
SI 03:00:00 NR -11.55 74.71
SI 06:00:00 NR -11.55 74.80
SI 09:00:00 NR -11.36 75.59
SI 12:00:00 NR -11.32 75.65
SI 15:00:00 NR -11.30 75.66
SI 18:00:00 NR -11.31 75.59
SI 21:00:00 NR -11.34 75.42
SI 1848-03-02 00:00:00 NR -11.41 75.11
SI 03:00:00 NR -11.53 74.65
SI 06:00:00 NR -11.70 74.00
SI 09:00:00 NR -11.92 73.15
SI 12:00:00 NR -12.20 72.12
SI 15:00:00 NR -12.51 70.97
SI 18:00:00 NR -12.86 69.72
SI 21:00:00 NR -13.22 68.41
SI 1848-03-03 00:00:00 NR -13.61 67.10
SI 03:00:00 NR -14.00 65.81
SI 06:00:00 NR -14.40 64.60
SI 09:00:00 NR -14.70 63.50
SI 12:00:00 NR -15.01 62.44
SI 15:00:00 NR -15.34 61.43
SI 18:00:00 NR -15.69 60.48
SI 21:00:00 NR -16.08 59.61
SI 1848-03-04 00:00:00 NR -16.89 58.50
SI 03:00:00 NR -17.52 57.77
SI 06:00:00 NR -18.11 57.26
SI 09:00:00 NR -18.81 56.82
SI 12:00:00 NR -19.54 56.50
SI 15:00:00 NR -20.35 56.26
SI 18:00:00 NR -21.20 56.14
SI 21:00:00 NR -22.05 56.15
SI 1848-03-05 00:00:00 NR -22.87 56.26
SI 03:00:00 NR -23.69 56.42
SI 06:00:00 NR -24.50 56.60
SI 09:00:00 NR -25.22 56.61
SI 12:00:00 NR -25.90 56.80
SI 15:00:00 NR -26.55 57.07
SI 18:00:00 NR -27.18 57.44
SI 21:00:00 NR -27.79 57.90
SI 1848-03-06 00:00:00 NR -28.39 58.46
SI 03:00:00 NR -28.99 59.13
SI 06:00:00 NR -29.60 59.90
SI 09:00:00 NR -30.22 60.79
SI 12:00:00 NR -30.84 61.78
SI 15:00:00 NR -31.46 62.87
SI 18:00:00 NR -32.09 64.04
SI 21:00:00 NR -32.71 65.28
SI 1848-03-07 00:00:00 NR -33.32 66.58
SI 03:00:00 NR -33.92 67.92
SI 06:00:00 NR -34.50 69.30

Source Information

Agency Information
USA
TOKYO
CMA
HKO
NEWDELHI
REUNION WMO-Best-Tracks.txt:Line=1:xxxx848001
BOM
NADI
WELLINGTON
DS824
TD9636 cons_worldwide_trop_cyclone_18710101-19891231-005:Line=19
TD9635
NEUMANN
MLC

All available IBTrACS Data

SEASON BASIN SUBBASIN ISO_TIME_________ NATURE LAT LON WMO AGENCY DIST2LAND LANDFALL IFLAG USA SSHS REUNION LAT REUNION LON REUNION TYPE REUNION TNUM TD9636 LAT TD9636 LON TD9636 STAGE STORM SPEED STORM DIR
Year degrees north degrees east km km 1 degrees north degrees east 1 degrees north degrees east kts degrees
1848 SI MM 1848-02-29 18:00:00 NR -11.50 75.00 2045 2045 __________O___ -1 -11.50 75.00 7 1 60
1848 SI MM 21:00:00 NR -11.48 75.05 2045 2042 __________P___ -1 -11.54 74.83 7 0 0
1848 SI MM 1848-03-01 00:00:00 NR -11.49 74.99 2045 2045 __________P___ -1 -11.59 74.64 7 3 258
1848 SI MM 03:00:00 NR -11.55 74.71 2050 2050 __________P___ -1 -11.64 74.41 7 2 252
1848 SI MM 06:00:00 NR -11.55 74.80 reunion 2052 2015 _____O____O___ -1 -11.40 75.50 99 9.90 -11.70 74.10 7 9 77
1848 SI MM 09:00:00 NR -11.36 75.59 2015 2002 _____P________ -1 -11.36 75.59 99 7 9 75
1848 SI MM 12:00:00 NR -11.32 75.65 2002 2002 _____P________ -1 -11.32 75.65 99 7 1 53
1848 SI MM 15:00:00 NR -11.30 75.66 2002 2002 _____P________ -1 -11.30 75.66 99 7 1 286
1848 SI MM 18:00:00 NR -11.31 75.59 2005 2005 _____P________ -1 -11.31 75.59 99 7 2 261
1848 SI MM 21:00:00 NR -11.34 75.42 2011 2011 _____P________ -1 -11.34 75.42 99 7 5 257
1848 SI MM 1848-03-02 00:00:00 NR -11.41 75.11 2031 2031 _____P________ -1 -11.41 75.11 99 7 8 256
1848 SI MM 03:00:00 NR -11.53 74.65 2046 1978 _____P________ -1 -11.53 74.65 99 7 11 255
1848 SI MM 06:00:00 NR -11.70 74.00 reunion 1978 1892 _____O________ -1 -11.70 74.00 99 9.90 7 15 255
1848 SI MM 09:00:00 NR -11.92 73.15 1883 1782 _____P________ -1 -11.92 73.15 99 7 19 255
1848 SI MM 12:00:00 NR -12.20 72.12 1772 1653 _____P________ -1 -12.20 72.12 99 7 22 255
1848 SI MM 15:00:00 NR -12.51 70.97 1653 1526 _____P________ -1 -12.51 70.97 99 7 24 254
1848 SI MM 18:00:00 NR -12.86 69.72 1511 1385 _____P________ -1 -12.86 69.72 99 7 26 254
1848 SI MM 21:00:00 NR -13.22 68.41 1376 1245 _____P________ -1 -13.22 68.41 99 7 27 254
1848 SI MM 1848-03-03 00:00:00 NR -13.61 67.10 1236 1106 _____P________ -1 -13.61 67.10 99 7 26 253
1848 SI MM 03:00:00 NR -14.00 65.81 1098 979 _____P________ -1 -14.00 65.81 99 7 26 252
1848 SI MM 06:00:00 NR -14.40 64.60 reunion 971 869 _____O________ -1 -14.40 64.60 99 9.90 7 24 253
1848 SI MM 09:00:00 NR -14.70 63.50 862 764 _____P________ -1 -14.70 63.50 99 7 22 254
1848 SI MM 12:00:00 NR -15.01 62.44 757 671 _____P________ -1 -15.01 62.44 99 7 21 252
1848 SI MM 15:00:00 NR -15.34 61.43 664 574 _____P________ -1 -15.34 61.43 99 7 20 250
1848 SI MM 18:00:00 NR -15.69 60.48 574 505 _____P________ -1 -15.69 60.48 99 7 19 247
1848 SI MM 21:00:00 NR -16.08 59.61 490 381 _____P________ -1 -16.08 59.61 99 7 23 238
1848 SI MM 1848-03-04 00:00:00 NR -16.89 58.50 367 291 _____P________ -1 -16.52 58.83 99 7 23 231
1848 SI MM 03:00:00 NR -17.52 57.77 291 224 _____P________ -1 -17.02 58.16 99 7 17 224
1848 SI MM 06:00:00 NR -18.11 57.26 reunion 224 162 _____O____O___ -1 -17.60 57.60 99 9.90 -18.80 56.80 7 16 215
1848 SI MM 09:00:00 NR -18.81 56.82 162 122 _____P____P___ -1 -18.32 57.11 99 -19.43 56.47 7 16 207
1848 SI MM 12:00:00 NR -19.54 56.50 124 100 _____P____P___ -1 -19.12 56.72 99 -20.09 56.20 7 16 199
1848 SI MM 15:00:00 NR -20.35 56.26 91 31 _____P____P___ -1 -19.99 56.45 99 -20.78 56.04 7 17 192
1848 SI MM 18:00:00 NR -21.20 56.14 31 31 _____P____O___ -1 -20.89 56.28 99 -21.50 56.00 7 17 184
1848 SI MM 21:00:00 NR -22.05 56.15 84 84 _____P____P___ -1 -21.82 56.20 99 -22.24 56.11 7 17 176
1848 SI MM 1848-03-05 00:00:00 NR -22.87 56.26 182 182 _____P____P___ -1 -22.75 56.22 99 -22.98 56.34 7 17 171
1848 SI MM 03:00:00 NR -23.69 56.42 269 269 _____P____P___ -1 -23.65 56.32 99 -23.74 56.65 7 17 169
1848 SI MM 06:00:00 NR -24.50 56.60 reunion 361 361 _____O____O___ -1 -24.50 56.50 99 9.90 -24.50 57.00 7 16 174
1848 SI MM 09:00:00 NR -25.22 56.61 436 436 _____P________ -1 -25.22 56.61 99 7 14 173
1848 SI MM 12:00:00 NR -25.90 56.80 517 517 _____P________ -1 -25.90 56.80 99 7 14 163
1848 SI MM 15:00:00 NR -26.55 57.07 600 600 _____P________ -1 -26.55 57.07 99 7 14 156
1848 SI MM 18:00:00 NR -27.18 57.44 673 673 _____P________ -1 -27.18 57.44 99 14 149
1848 SI MM 21:00:00 NR -27.79 57.90 751 751 _____P________ -1 -27.79 57.90 99 15 143
1848 SI MM 1848-03-06 00:00:00 NR -28.39 58.46 834 834 _____P________ -1 -28.39 58.46 99 16 138
1848 SI MM 03:00:00 NR -28.99 59.13 918 918 _____P________ -1 -28.99 59.13 99 17 134
1848 SI MM 06:00:00 NR -29.60 59.90 reunion 1012 1012 _____O________ -1 -29.60 59.90 99 9.90 19 130
1848 SI MM 09:00:00 NR -30.22 60.79 1111 1111 _____P________ -1 -30.22 60.79 99 20 127
1848 SI MM 12:00:00 NR -30.84 61.78 1217 1217 _____P________ -1 -30.84 61.78 99 22 125
1848 SI MM 15:00:00 NR -31.46 62.87 1333 1333 _____P________ -1 -31.46 62.87 99 23 123
1848 SI MM 18:00:00 NR -32.09 64.04 1438 1438 _____P________ -1 -32.09 64.04 99 24 121
1848 SI MM 21:00:00 NR -32.71 65.28 1556 1556 _____P________ -1 -32.71 65.28 99 25 120
1848 SI MM 1848-03-07 00:00:00 NR -33.32 66.58 1677 1660 _____P________ -1 -33.32 66.58 99 25 119
1848 SI MM 03:00:00 NR -33.92 67.92 1659 1590 _____P________ -1 -33.92 67.92 99 25 118
1848 SI MM 06:00:00 NR -34.50 69.30 reunion 1590 _____O________ -1 -34.50 69.30 99 9.90 26 117